sensor_id;sensor_type;location;lat;lon;timestamp;temperature;humidity
8892;DHT22;4482;54.332;10.118;2024-02-26T00:00:11;4.30;99.90
8892;DHT22;4482;54.332;10.118;2024-02-26T00:02:38;4.20;99.90
8892;DHT22;4482;54.332;10.118;2024-02-26T00:05:05;4.10;99.90
8892;DHT22;4482;54.332;10.118;2024-02-26T00:07:32;4.10;99.90
8892;DHT22;4482;54.332;10.118;2024-02-26T00:09:59;4.10;99.90
8892;DHT22;4482;54.332;10.118;2024-02-26T00:12:27;4.10;99.90
8892;DHT22;4482;54.332;10.118;2024-02-26T00:14:54;4.10;99.90
8892;DHT22;4482;54.332;10.118;2024-02-26T00:17:23;4.20;99.90
8892;DHT22;4482;54.332;10.118;2024-02-26T00:19:50;4.30;99.90
8892;DHT22;4482;54.332;10.118;2024-02-26T00:22:16;4.30;99.90
8892;DHT22;4482;54.332;10.118;2024-02-26T00:24:43;4.30;99.90
8892;DHT22;4482;54.332;10.118;2024-02-26T00:27:10;4.30;99.90
8892;DHT22;4482;54.332;10.118;2024-02-26T00:29:38;4.30;99.90
8892;DHT22;4482;54.332;10.118;2024-02-26T00:32:04;4.30;99.90
8892;DHT22;4482;54.332;10.118;2024-02-26T00:34:31;4.20;99.90
8892;DHT22;4482;54.332;10.118;2024-02-26T00:36:58;4.30;99.90
8892;DHT22;4482;54.332;10.118;2024-02-26T00:39:25;4.30;99.90
8892;DHT22;4482;54.332;10.118;2024-02-26T00:41:51;4.30;99.90
8892;DHT22;4482;54.332;10.118;2024-02-26T00:44:18;4.20;99.90
8892;DHT22;4482;54.332;10.118;2024-02-26T00:46:46;4.30;99.90
8892;DHT22;4482;54.332;10.118;2024-02-26T00:49:13;4.30;99.90
8892;DHT22;4482;54.332;10.118;2024-02-26T00:51:40;4.20;99.90
8892;DHT22;4482;54.332;10.118;2024-02-26T00:54:06;4.20;99.90
8892;DHT22;4482;54.332;10.118;2024-02-26T00:56:33;4.10;99.90
8892;DHT22;4482;54.332;10.118;2024-02-26T00:59:00;4.10;99.90
8892;DHT22;4482;54.332;10.118;2024-02-26T01:01:26;4.10;99.90
8892;DHT22;4482;54.332;10.118;2024-02-26T01:03:55;4.10;99.90
8892;DHT22;4482;54.332;10.118;2024-02-26T01:06:21;4.10;99.90
8892;DHT22;4482;54.332;10.118;2024-02-26T01:08:48;4.10;99.90
8892;DHT22;4482;54.332;10.118;2024-02-26T01:11:15;4.20;99.90
8892;DHT22;4482;54.332;10.118;2024-02-26T01:13:42;4.20;99.90
8892;DHT22;4482;54.332;10.118;2024-02-26T01:16:09;4.10;99.90
8892;DHT22;4482;54.332;10.118;2024-02-26T01:18:36;4.10;99.90
8892;DHT22;4482;54.332;10.118;2024-02-26T01:21:04;4.20;99.90
8892;DHT22;4482;54.332;10.118;2024-02-26T01:23:32;4.20;99.90
8892;DHT22;4482;54.332;10.118;2024-02-26T01:25:59;4.10;99.90
8892;DHT22;4482;54.332;10.118;2024-02-26T01:28:25;4.10;99.90
8892;DHT22;4482;54.332;10.118;2024-02-26T01:30:52;4.10;99.90
8892;DHT22;4482;54.332;10.118;2024-02-26T01:33:19;4.00;99.90
8892;DHT22;4482;54.332;10.118;2024-02-26T01:35:45;4.00;99.90
8892;DHT22;4482;54.332;10.118;2024-02-26T01:38:14;4.00;99.90
8892;DHT22;4482;54.332;10.118;2024-02-26T01:40:40;4.00;99.90
8892;DHT22;4482;54.332;10.118;2024-02-26T01:43:07;4.00;99.90
8892;DHT22;4482;54.332;10.118;2024-02-26T01:45:34;3.90;99.90
8892;DHT22;4482;54.332;10.118;2024-02-26T01:48:01;3.90;99.90
8892;DHT22;4482;54.332;10.118;2024-02-26T01:50:28;3.90;99.90
8892;DHT22;4482;54.332;10.118;2024-02-26T01:52:55;3.90;99.90
8892;DHT22;4482;54.332;10.118;2024-02-26T01:55:23;3.80;99.90
8892;DHT22;4482;54.332;10.118;2024-02-26T01:57:50;3.80;99.90
8892;DHT22;4482;54.332;10.118;2024-02-26T02:00:18;3.70;99.90
8892;DHT22;4482;54.332;10.118;2024-02-26T02:02:46;3.70;99.90
8892;DHT22;4482;54.332;10.118;2024-02-26T02:05:14;3.60;99.90
8892;DHT22;4482;54.332;10.118;2024-02-26T02:07:42;3.60;99.90
8892;DHT22;4482;54.332;10.118;2024-02-26T02:10:09;3.50;99.90
8892;DHT22;4482;54.332;10.118;2024-02-26T02:12:37;3.40;99.90
8892;DHT22;4482;54.332;10.118;2024-02-26T02:15:05;3.30;99.90
8892;DHT22;4482;54.332;10.118;2024-02-26T02:17:32;3.20;99.90
8892;DHT22;4482;54.332;10.118;2024-02-26T02:19:59;3.10;99.90
8892;DHT22;4482;54.332;10.118;2024-02-26T02:22:27;3.30;99.90
8892;DHT22;4482;54.332;10.118;2024-02-26T02:24:54;3.80;99.90
8892;DHT22;4482;54.332;10.118;2024-02-26T02:27:20;3.50;99.90
8892;DHT22;4482;54.332;10.118;2024-02-26T02:29:47;3.40;99.90
8892;DHT22;4482;54.332;10.118;2024-02-26T02:32:14;3.30;99.90
8892;DHT22;4482;54.332;10.118;2024-02-26T02:34:41;3.20;99.90
8892;DHT22;4482;54.332;10.118;2024-02-26T02:37:07;3.20;99.90
8892;DHT22;4482;54.332;10.118;2024-02-26T02:39:35;3.20;99.90
8892;DHT22;4482;54.332;10.118;2024-02-26T02:42:02;3.20;99.90
8892;DHT22;4482;54.332;10.118;2024-02-26T02:44:29;3.20;99.90
8892;DHT22;4482;54.332;10.118;2024-02-26T02:46:56;3.20;99.90
8892;DHT22;4482;54.332;10.118;2024-02-26T02:49:22;3.30;99.90
8892;DHT22;4482;54.332;10.118;2024-02-26T02:51:50;3.20;99.90
8892;DHT22;4482;54.332;10.118;2024-02-26T02:54:18;3.10;99.90
8892;DHT22;4482;54.332;10.118;2024-02-26T02:56:46;3.10;99.90
8892;DHT22;4482;54.332;10.118;2024-02-26T02:59:13;3.00;99.90
8892;DHT22;4482;54.332;10.118;2024-02-26T03:01:40;3.00;99.90
8892;DHT22;4482;54.332;10.118;2024-02-26T03:04:06;2.90;99.90
8892;DHT22;4482;54.332;10.118;2024-02-26T03:06:33;2.90;99.90
8892;DHT22;4482;54.332;10.118;2024-02-26T03:09:00;2.80;99.90
8892;DHT22;4482;54.332;10.118;2024-02-26T03:11:27;2.70;99.90
8892;DHT22;4482;54.332;10.118;2024-02-26T03:13:55;2.70;99.90
8892;DHT22;4482;54.332;10.118;2024-02-26T03:16:22;2.70;99.90
8892;DHT22;4482;54.332;10.118;2024-02-26T03:18:49;2.70;99.90
8892;DHT22;4482;54.332;10.118;2024-02-26T03:21:16;2.60;99.90
8892;DHT22;4482;54.332;10.118;2024-02-26T03:23:42;2.60;99.90
8892;DHT22;4482;54.332;10.118;2024-02-26T03:26:09;2.50;99.90
8892;DHT22;4482;54.332;10.118;2024-02-26T03:28:39;2.40;99.90
8892;DHT22;4482;54.332;10.118;2024-02-26T03:31:07;2.40;99.90
8892;DHT22;4482;54.332;10.118;2024-02-26T03:33:33;2.30;99.90
8892;DHT22;4482;54.332;10.118;2024-02-26T03:36:00;2.30;99.90
8892;DHT22;4482;54.332;10.118;2024-02-26T03:38:28;2.30;99.90
8892;DHT22;4482;54.332;10.118;2024-02-26T03:40:54;2.30;99.90
8892;DHT22;4482;54.332;10.118;2024-02-26T03:43:21;2.30;99.90
8892;DHT22;4482;54.332;10.118;2024-02-26T03:45:48;2.30;99.90
8892;DHT22;4482;54.332;10.118;2024-02-26T03:48:16;2.30;99.90
8892;DHT22;4482;54.332;10.118;2024-02-26T03:50:42;2.20;99.90
8892;DHT22;4482;54.332;10.118;2024-02-26T03:53:09;2.20;99.90
8892;DHT22;4482;54.332;10.118;2024-02-26T03:55:38;2.10;99.90
8892;DHT22;4482;54.332;10.118;2024-02-26T03:58:07;2.10;99.90
8892;DHT22;4482;54.332;10.118;2024-02-26T04:00:33;2.00;99.90
8892;DHT22;4482;54.332;10.118;2024-02-26T04:03:00;2.10;99.90
8892;DHT22;4482;54.332;10.118;2024-02-26T04:05:28;2.10;99.90
8892;DHT22;4482;54.332;10.118;2024-02-26T04:07:55;2.10;99.90
8892;DHT22;4482;54.332;10.118;2024-02-26T04:10:22;2.10;99.90
8892;DHT22;4482;54.332;10.118;2024-02-26T04:12:48;2.10;99.90
8892;DHT22;4482;54.332;10.118;2024-02-26T04:15:15;2.00;99.90
8892;DHT22;4482;54.332;10.118;2024-02-26T04:17:42;2.10;99.90
8892;DHT22;4482;54.332;10.118;2024-02-26T04:20:12;2.10;99.90
8892;DHT22;4482;54.332;10.118;2024-02-26T04:22:40;2.20;99.90
8892;DHT22;4482;54.332;10.118;2024-02-26T04:25:07;2.20;99.90
8892;DHT22;4482;54.332;10.118;2024-02-26T04:27:34;2.30;99.90
8892;DHT22;4482;54.332;10.118;2024-02-26T04:30:01;2.30;99.90
8892;DHT22;4482;54.332;10.118;2024-02-26T04:32:29;2.20;99.90
8892;DHT22;4482;54.332;10.118;2024-02-26T04:34:56;2.20;99.90
8892;DHT22;4482;54.332;10.118;2024-02-26T04:37:22;2.20;99.90
8892;DHT22;4482;54.332;10.118;2024-02-26T04:39:50;2.20;99.90
8892;DHT22;4482;54.332;10.118;2024-02-26T04:42:17;2.30;99.90
8892;DHT22;4482;54.332;10.118;2024-02-26T04:44:44;2.30;99.90
8892;DHT22;4482;54.332;10.118;2024-02-26T04:47:10;2.30;99.90
8892;DHT22;4482;54.332;10.118;2024-02-26T04:49:38;2.30;99.90
8892;DHT22;4482;54.332;10.118;2024-02-26T04:52:05;2.30;99.90
8892;DHT22;4482;54.332;10.118;2024-02-26T04:54:32;2.30;99.90
8892;DHT22;4482;54.332;10.118;2024-02-26T04:57:00;2.30;99.90
8892;DHT22;4482;54.332;10.118;2024-02-26T04:59:26;2.30;99.90
8892;DHT22;4482;54.332;10.118;2024-02-26T05:01:53;2.30;99.90
8892;DHT22;4482;54.332;10.118;2024-02-26T05:04:20;2.30;99.90
8892;DHT22;4482;54.332;10.118;2024-02-26T05:06:47;2.30;99.90
8892;DHT22;4482;54.332;10.118;2024-02-26T05:09:13;2.20;99.90
8892;DHT22;4482;54.332;10.118;2024-02-26T05:11:40;2.20;99.90
8892;DHT22;4482;54.332;10.118;2024-02-26T05:14:08;2.20;99.90
8892;DHT22;4482;54.332;10.118;2024-02-26T05:16:35;2.30;99.90
8892;DHT22;4482;54.332;10.118;2024-02-26T05:19:01;2.30;99.90
8892;DHT22;4482;54.332;10.118;2024-02-26T05:21:28;2.40;99.90
8892;DHT22;4482;54.332;10.118;2024-02-26T05:23:55;2.40;99.90
8892;DHT22;4482;54.332;10.118;2024-02-26T05:26:22;2.50;99.90
8892;DHT22;4482;54.332;10.118;2024-02-26T05:28:49;2.50;99.90
8892;DHT22;4482;54.332;10.118;2024-02-26T05:31:17;2.60;99.90
8892;DHT22;4482;54.332;10.118;2024-02-26T05:33:44;2.60;99.90
8892;DHT22;4482;54.332;10.118;2024-02-26T05:36:17;2.70;99.90
8892;DHT22;4482;54.332;10.118;2024-02-26T05:38:44;2.70;99.90
8892;DHT22;4482;54.332;10.118;2024-02-26T05:41:11;2.70;99.90
8892;DHT22;4482;54.332;10.118;2024-02-26T05:43:38;2.70;99.90
8892;DHT22;4482;54.332;10.118;2024-02-26T05:46:05;2.70;99.90
8892;DHT22;4482;54.332;10.118;2024-02-26T05:48:33;2.80;99.90
8892;DHT22;4482;54.332;10.118;2024-02-26T05:50:59;2.80;99.90
8892;DHT22;4482;54.332;10.118;2024-02-26T05:53:26;2.80;99.90
8892;DHT22;4482;54.332;10.118;2024-02-26T05:55:53;2.90;99.90
8892;DHT22;4482;54.332;10.118;2024-02-26T05:58:19;2.80;99.90
8892;DHT22;4482;54.332;10.118;2024-02-26T06:00:47;2.80;99.90
8892;DHT22;4482;54.332;10.118;2024-02-26T06:03:13;2.90;99.90
8892;DHT22;4482;54.332;10.118;2024-02-26T06:05:41;2.90;99.90
8892;DHT22;4482;54.332;10.118;2024-02-26T06:08:08;2.90;99.90
8892;DHT22;4482;54.332;10.118;2024-02-26T06:10:35;2.80;99.90
8892;DHT22;4482;54.332;10.118;2024-02-26T06:13:02;2.90;99.90
8892;DHT22;4482;54.332;10.118;2024-02-26T06:15:28;2.90;99.90
8892;DHT22;4482;54.332;10.118;2024-02-26T06:17:55;3.00;99.90
8892;DHT22;4482;54.332;10.118;2024-02-26T06:20:22;3.00;99.90
8892;DHT22;4482;54.332;10.118;2024-02-26T06:22:50;2.90;99.90
8892;DHT22;4482;54.332;10.118;2024-02-26T06:25:17;2.80;99.90
8892;DHT22;4482;54.332;10.118;2024-02-26T06:27:43;2.80;99.90
8892;DHT22;4482;54.332;10.118;2024-02-26T06:30:10;2.70;99.90
8892;DHT22;4482;54.332;10.118;2024-02-26T06:32:37;2.60;99.90
8892;DHT22;4482;54.332;10.118;2024-02-26T06:35:04;2.60;99.90
8892;DHT22;4482;54.332;10.118;2024-02-26T06:37:32;2.50;99.90
8892;DHT22;4482;54.332;10.118;2024-02-26T06:40:00;2.50;99.90
8892;DHT22;4482;54.332;10.118;2024-02-26T06:42:29;2.40;99.90
8892;DHT22;4482;54.332;10.118;2024-02-26T06:44:56;2.40;99.90
8892;DHT22;4482;54.332;10.118;2024-02-26T06:47:22;2.40;99.90
8892;DHT22;4482;54.332;10.118;2024-02-26T06:49:49;2.40;99.90
8892;DHT22;4482;54.332;10.118;2024-02-26T06:52:16;2.40;99.90
8892;DHT22;4482;54.332;10.118;2024-02-26T06:54:42;2.40;99.90
8892;DHT22;4482;54.332;10.118;2024-02-26T06:57:11;2.40;99.90
8892;DHT22;4482;54.332;10.118;2024-02-26T06:59:38;2.50;99.90
8892;DHT22;4482;54.332;10.118;2024-02-26T07:02:05;2.60;99.90
8892;DHT22;4482;54.332;10.118;2024-02-26T07:04:32;2.60;99.90
8892;DHT22;4482;54.332;10.118;2024-02-26T07:06:59;2.70;99.90
8892;DHT22;4482;54.332;10.118;2024-02-26T07:09:26;2.60;99.90
8892;DHT22;4482;54.332;10.118;2024-02-26T07:11:52;2.70;99.90
8892;DHT22;4482;54.332;10.118;2024-02-26T07:14:20;2.60;99.90
8892;DHT22;4482;54.332;10.118;2024-02-26T07:16:47;2.60;99.90
8892;DHT22;4482;54.332;10.118;2024-02-26T07:19:14;2.60;99.90
8892;DHT22;4482;54.332;10.118;2024-02-26T07:21:41;2.50;99.90
8892;DHT22;4482;54.332;10.118;2024-02-26T07:24:08;2.40;99.90
8892;DHT22;4482;54.332;10.118;2024-02-26T07:26:34;2.30;99.90
8892;DHT22;4482;54.332;10.118;2024-02-26T07:29:01;2.30;99.90
8892;DHT22;4482;54.332;10.118;2024-02-26T07:31:30;2.30;99.90
8892;DHT22;4482;54.332;10.118;2024-02-26T07:33:57;2.30;99.90
8892;DHT22;4482;54.332;10.118;2024-02-26T07:36:24;2.20;99.90
8892;DHT22;4482;54.332;10.118;2024-02-26T07:38:51;2.20;99.90
8892;DHT22;4482;54.332;10.118;2024-02-26T07:41:19;2.30;99.90
8892;DHT22;4482;54.332;10.118;2024-02-26T07:43:46;2.30;99.90
8892;DHT22;4482;54.332;10.118;2024-02-26T07:46:14;2.40;99.90
8892;DHT22;4482;54.332;10.118;2024-02-26T07:48:42;2.50;99.90
8892;DHT22;4482;54.332;10.118;2024-02-26T07:51:08;2.50;99.90
8892;DHT22;4482;54.332;10.118;2024-02-26T07:53:35;2.30;99.90
8892;DHT22;4482;54.332;10.118;2024-02-26T07:56:02;2.30;99.90
8892;DHT22;4482;54.332;10.118;2024-02-26T07:58:28;2.20;99.90
8892;DHT22;4482;54.332;10.118;2024-02-26T08:00:55;2.10;99.90
8892;DHT22;4482;54.332;10.118;2024-02-26T08:03:22;2.10;99.90
8892;DHT22;4482;54.332;10.118;2024-02-26T08:05:50;2.10;99.90
8892;DHT22;4482;54.332;10.118;2024-02-26T08:08:17;2.20;99.90
8892;DHT22;4482;54.332;10.118;2024-02-26T08:10:44;2.20;99.90
8892;DHT22;4482;54.332;10.118;2024-02-26T08:13:10;2.20;99.90
8892;DHT22;4482;54.332;10.118;2024-02-26T08:15:37;2.10;99.90
8892;DHT22;4482;54.332;10.118;2024-02-26T08:18:04;2.10;99.90
8892;DHT22;4482;54.332;10.118;2024-02-26T08:20:31;2.20;99.90
8892;DHT22;4482;54.332;10.118;2024-02-26T08:22:59;2.10;99.90
8892;DHT22;4482;54.332;10.118;2024-02-26T08:25:26;2.30;99.90
8892;DHT22;4482;54.332;10.118;2024-02-26T08:27:52;2.50;99.90
8892;DHT22;4482;54.332;10.118;2024-02-26T08:30:19;2.50;99.90
8892;DHT22;4482;54.332;10.118;2024-02-26T08:32:46;2.70;99.90
8892;DHT22;4482;54.332;10.118;2024-02-26T08:35:14;2.70;99.90
8892;DHT22;4482;54.332;10.118;2024-02-26T08:37:43;2.90;99.90
8892;DHT22;4482;54.332;10.118;2024-02-26T08:40:11;2.90;99.90
8892;DHT22;4482;54.332;10.118;2024-02-26T08:42:38;3.00;99.90
8892;DHT22;4482;54.332;10.118;2024-02-26T08:45:05;3.00;99.90
8892;DHT22;4482;54.332;10.118;2024-02-26T08:47:32;3.10;99.90
8892;DHT22;4482;54.332;10.118;2024-02-26T08:49:59;3.10;99.90
8892;DHT22;4482;54.332;10.118;2024-02-26T08:52:25;3.10;99.90
8892;DHT22;4482;54.332;10.118;2024-02-26T08:54:52;3.10;99.90
8892;DHT22;4482;54.332;10.118;2024-02-26T08:57:20;3.20;99.90
8892;DHT22;4482;54.332;10.118;2024-02-26T08:59:47;3.20;99.90
8892;DHT22;4482;54.332;10.118;2024-02-26T09:02:14;3.20;99.90
8892;DHT22;4482;54.332;10.118;2024-02-26T09:04:40;3.30;99.90
8892;DHT22;4482;54.332;10.118;2024-02-26T09:07:07;3.40;99.90
8892;DHT22;4482;54.332;10.118;2024-02-26T09:09:34;3.50;99.90
8892;DHT22;4482;54.332;10.118;2024-02-26T09:12:01;3.50;99.90
8892;DHT22;4482;54.332;10.118;2024-02-26T09:14:29;3.60;99.90
8892;DHT22;4482;54.332;10.118;2024-02-26T09:16:56;3.60;99.90
8892;DHT22;4482;54.332;10.118;2024-02-26T09:19:22;3.60;99.90
8892;DHT22;4482;54.332;10.118;2024-02-26T09:21:50;3.70;99.90
8892;DHT22;4482;54.332;10.118;2024-02-26T09:24:19;3.70;99.90
8892;DHT22;4482;54.332;10.118;2024-02-26T09:26:45;3.90;99.90
8892;DHT22;4482;54.332;10.118;2024-02-26T09:29:12;3.90;99.90
8892;DHT22;4482;54.332;10.118;2024-02-26T09:31:40;4.00;99.90
8892;DHT22;4482;54.332;10.118;2024-02-26T09:34:07;4.10;99.90
8892;DHT22;4482;54.332;10.118;2024-02-26T09:36:34;4.10;99.90
8892;DHT22;4482;54.332;10.118;2024-02-26T09:39:00;4.10;99.90
8892;DHT22;4482;54.332;10.118;2024-02-26T09:41:28;4.10;99.90
8892;DHT22;4482;54.332;10.118;2024-02-26T09:43:56;3.90;99.90
8892;DHT22;4482;54.332;10.118;2024-02-26T09:46:23;3.90;99.90
8892;DHT22;4482;54.332;10.118;2024-02-26T09:48:51;3.90;99.90
8892;DHT22;4482;54.332;10.118;2024-02-26T09:51:19;4.00;99.90
8892;DHT22;4482;54.332;10.118;2024-02-26T09:53:46;4.10;99.90
8892;DHT22;4482;54.332;10.118;2024-02-26T09:56:14;4.10;99.90
8892;DHT22;4482;54.332;10.118;2024-02-26T09:58:42;4.10;99.90
8892;DHT22;4482;54.332;10.118;2024-02-26T10:01:11;4.10;99.90
8892;DHT22;4482;54.332;10.118;2024-02-26T10:03:40;4.20;99.90
8892;DHT22;4482;54.332;10.118;2024-02-26T10:06:10;4.30;99.90
8892;DHT22;4482;54.332;10.118;2024-02-26T10:08:37;4.30;99.90
8892;DHT22;4482;54.332;10.118;2024-02-26T10:11:04;4.30;99.90
8892;DHT22;4482;54.332;10.118;2024-02-26T10:13:31;4.20;99.90
8892;DHT22;4482;54.332;10.118;2024-02-26T10:15:58;4.20;99.90
8892;DHT22;4482;54.332;10.118;2024-02-26T10:18:25;4.20;99.90
8892;DHT22;4482;54.332;10.118;2024-02-26T10:20:58;4.20;99.90
8892;DHT22;4482;54.332;10.118;2024-02-26T10:23:27;4.30;99.90
8892;DHT22;4482;54.332;10.118;2024-02-26T10:25:53;4.40;99.90
8892;DHT22;4482;54.332;10.118;2024-02-26T10:28:20;4.40;99.90
8892;DHT22;4482;54.332;10.118;2024-02-26T10:30:47;4.60;99.90
8892;DHT22;4482;54.332;10.118;2024-02-26T10:33:14;4.60;99.90
8892;DHT22;4482;54.332;10.118;2024-02-26T10:35:45;4.50;99.90
8892;DHT22;4482;54.332;10.118;2024-02-26T10:38:11;4.60;99.90
8892;DHT22;4482;54.332;10.118;2024-02-26T10:40:40;4.70;99.90
8892;DHT22;4482;54.332;10.118;2024-02-26T10:43:07;4.60;99.90
8892;DHT22;4482;54.332;10.118;2024-02-26T10:45:33;4.60;99.90
8892;DHT22;4482;54.332;10.118;2024-02-26T10:48:02;4.50;99.90
8892;DHT22;4482;54.332;10.118;2024-02-26T10:50:29;4.40;99.90
8892;DHT22;4482;54.332;10.118;2024-02-26T10:52:55;4.30;99.90
8892;DHT22;4482;54.332;10.118;2024-02-26T10:55:23;4.30;99.90
8892;DHT22;4482;54.332;10.118;2024-02-26T10:57:52;4.30;99.90
8892;DHT22;4482;54.332;10.118;2024-02-26T11:00:19;4.40;99.90
8892;DHT22;4482;54.332;10.118;2024-02-26T11:02:46;4.50;99.90
8892;DHT22;4482;54.332;10.118;2024-02-26T11:05:14;4.50;99.90
8892;DHT22;4482;54.332;10.118;2024-02-26T11:07:41;4.50;99.90
8892;DHT22;4482;54.332;10.118;2024-02-26T11:10:08;4.60;99.90
8892;DHT22;4482;54.332;10.118;2024-02-26T11:12:36;4.60;99.90
8892;DHT22;4482;54.332;10.118;2024-02-26T11:15:06;4.70;99.90
8892;DHT22;4482;54.332;10.118;2024-02-26T11:17:34;4.70;99.90
8892;DHT22;4482;54.332;10.118;2024-02-26T11:20:02;4.60;99.90
8892;DHT22;4482;54.332;10.118;2024-02-26T11:22:28;4.60;99.90
8892;DHT22;4482;54.332;10.118;2024-02-26T11:24:56;4.60;99.90
8892;DHT22;4482;54.332;10.118;2024-02-26T11:27:23;4.60;99.90
8892;DHT22;4482;54.332;10.118;2024-02-26T11:29:51;4.70;99.90
8892;DHT22;4482;54.332;10.118;2024-02-26T11:32:20;4.80;99.90
8892;DHT22;4482;54.332;10.118;2024-02-26T11:34:47;4.90;99.90
8892;DHT22;4482;54.332;10.118;2024-02-26T11:37:14;5.00;99.90
8892;DHT22;4482;54.332;10.118;2024-02-26T11:39:42;5.20;99.90
8892;DHT22;4482;54.332;10.118;2024-02-26T11:42:10;5.30;99.90
8892;DHT22;4482;54.332;10.118;2024-02-26T11:44:39;5.30;99.90
8892;DHT22;4482;54.332;10.118;2024-02-26T11:47:10;5.50;99.90
8892;DHT22;4482;54.332;10.118;2024-02-26T11:49:38;5.60;99.90
8892;DHT22;4482;54.332;10.118;2024-02-26T11:52:05;5.80;99.90
8892;DHT22;4482;54.332;10.118;2024-02-26T11:54:39;5.90;99.90
8892;DHT22;4482;54.332;10.118;2024-02-26T11:57:19;6.10;99.90
8892;DHT22;4482;54.332;10.118;2024-02-26T11:59:46;6.10;99.90
8892;DHT22;4482;54.332;10.118;2024-02-26T12:04:56;6.20;99.90
8892;DHT22;4482;54.332;10.118;2024-02-26T12:07:24;6.30;99.90
8892;DHT22;4482;54.332;10.118;2024-02-26T12:09:52;6.30;99.90
8892;DHT22;4482;54.332;10.118;2024-02-26T12:12:18;6.30;99.90
8892;DHT22;4482;54.332;10.118;2024-02-26T12:14:50;6.30;99.90
8892;DHT22;4482;54.332;10.118;2024-02-26T12:17:18;6.40;99.90
8892;DHT22;4482;54.332;10.118;2024-02-26T12:19:45;6.30;99.90
8892;DHT22;4482;54.332;10.118;2024-02-26T12:22:13;6.30;99.90
8892;DHT22;4482;54.332;10.118;2024-02-26T12:24:41;6.30;99.90
8892;DHT22;4482;54.332;10.118;2024-02-26T12:27:07;6.30;99.90
8892;DHT22;4482;54.332;10.118;2024-02-26T12:29:34;6.30;99.90
8892;DHT22;4482;54.332;10.118;2024-02-26T12:32:01;6.30;99.90
8892;DHT22;4482;54.332;10.118;2024-02-26T12:34:28;6.30;99.90
8892;DHT22;4482;54.332;10.118;2024-02-26T12:36:54;6.40;99.90
8892;DHT22;4482;54.332;10.118;2024-02-26T12:39:23;6.40;99.90
8892;DHT22;4482;54.332;10.118;2024-02-26T12:41:49;6.40;99.90
8892;DHT22;4482;54.332;10.118;2024-02-26T12:44:16;6.30;99.90
8892;DHT22;4482;54.332;10.118;2024-02-26T12:46:43;6.30;99.90
8892;DHT22;4482;54.332;10.118;2024-02-26T12:49:10;6.20;99.90
8892;DHT22;4482;54.332;10.118;2024-02-26T12:51:40;6.10;99.90
8892;DHT22;4482;54.332;10.118;2024-02-26T12:54:07;6.10;99.90
8892;DHT22;4482;54.332;10.118;2024-02-26T12:56:36;6.10;99.90
8892;DHT22;4482;54.332;10.118;2024-02-26T12:59:03;6.10;99.90
8892;DHT22;4482;54.332;10.118;2024-02-26T13:01:30;6.20;99.90
8892;DHT22;4482;54.332;10.118;2024-02-26T13:03:57;6.20;99.90
8892;DHT22;4482;54.332;10.118;2024-02-26T13:06:23;6.30;99.90
8892;DHT22;4482;54.332;10.118;2024-02-26T13:08:54;6.30;99.90
8892;DHT22;4482;54.332;10.118;2024-02-26T13:11:23;6.40;99.90
8892;DHT22;4482;54.332;10.118;2024-02-26T13:13:51;6.30;99.90
8892;DHT22;4482;54.332;10.118;2024-02-26T13:16:18;6.30;99.90
8892;DHT22;4482;54.332;10.118;2024-02-26T13:18:44;6.20;99.90
8892;DHT22;4482;54.332;10.118;2024-02-26T13:21:12;6.30;99.90
8892;DHT22;4482;54.332;10.118;2024-02-26T13:23:40;6.30;99.90
8892;DHT22;4482;54.332;10.118;2024-02-26T13:26:07;6.30;99.90
8892;DHT22;4482;54.332;10.118;2024-02-26T13:28:34;6.30;99.90
8892;DHT22;4482;54.332;10.118;2024-02-26T13:31:02;6.30;99.90
8892;DHT22;4482;54.332;10.118;2024-02-26T13:33:31;6.30;99.90
8892;DHT22;4482;54.332;10.118;2024-02-26T13:35:58;6.30;99.90
8892;DHT22;4482;54.332;10.118;2024-02-26T13:38:25;6.30;99.90
8892;DHT22;4482;54.332;10.118;2024-02-26T13:40:52;6.30;99.90
8892;DHT22;4482;54.332;10.118;2024-02-26T13:43:19;6.20;99.90
8892;DHT22;4482;54.332;10.118;2024-02-26T13:45:46;6.20;99.90
8892;DHT22;4482;54.332;10.118;2024-02-26T13:48:14;6.30;99.90
8892;DHT22;4482;54.332;10.118;2024-02-26T13:50:41;6.40;99.90
8892;DHT22;4482;54.332;10.118;2024-02-26T13:53:10;6.20;99.90
8892;DHT22;4482;54.332;10.118;2024-02-26T13:55:37;6.20;99.90
8892;DHT22;4482;54.332;10.118;2024-02-26T13:58:05;6.20;99.90
8892;DHT22;4482;54.332;10.118;2024-02-26T14:00:32;6.20;99.90
8892;DHT22;4482;54.332;10.118;2024-02-26T14:03:00;6.20;99.90
8892;DHT22;4482;54.332;10.118;2024-02-26T14:05:28;6.10;99.90
8892;DHT22;4482;54.332;10.118;2024-02-26T14:07:55;6.10;99.90
8892;DHT22;4482;54.332;10.118;2024-02-26T14:10:22;6.00;99.90
8892;DHT22;4482;54.332;10.118;2024-02-26T14:12:49;6.00;99.90
8892;DHT22;4482;54.332;10.118;2024-02-26T14:15:15;6.00;99.90
8892;DHT22;4482;54.332;10.118;2024-02-26T14:17:42;6.00;99.90
8892;DHT22;4482;54.332;10.118;2024-02-26T14:20:10;6.00;99.90
8892;DHT22;4482;54.332;10.118;2024-02-26T14:22:38;6.10;99.90
8892;DHT22;4482;54.332;10.118;2024-02-26T14:25:04;6.10;99.90
8892;DHT22;4482;54.332;10.118;2024-02-26T14:27:31;6.20;99.90
8892;DHT22;4482;54.332;10.118;2024-02-26T14:29:58;6.30;99.90
8892;DHT22;4482;54.332;10.118;2024-02-26T14:32:25;6.20;99.90
8892;DHT22;4482;54.332;10.118;2024-02-26T14:34:52;6.20;99.90
8892;DHT22;4482;54.332;10.118;2024-02-26T14:37:19;6.30;99.90
8892;DHT22;4482;54.332;10.118;2024-02-26T14:39:47;6.30;99.90
8892;DHT22;4482;54.332;10.118;2024-02-26T14:42:17;6.30;99.90
8892;DHT22;4482;54.332;10.118;2024-02-26T14:44:43;6.30;99.90
8892;DHT22;4482;54.332;10.118;2024-02-26T14:47:13;6.30;99.90
8892;DHT22;4482;54.332;10.118;2024-02-26T14:49:39;6.20;99.90
8892;DHT22;4482;54.332;10.118;2024-02-26T14:52:06;6.30;99.90
8892;DHT22;4482;54.332;10.118;2024-02-26T14:54:33;6.30;99.90
8892;DHT22;4482;54.332;10.118;2024-02-26T14:57:04;6.30;99.90
8892;DHT22;4482;54.332;10.118;2024-02-26T14:59:31;6.20;99.90
8892;DHT22;4482;54.332;10.118;2024-02-26T15:01:58;6.20;99.90
8892;DHT22;4482;54.332;10.118;2024-02-26T15:04:26;6.10;99.90
8892;DHT22;4482;54.332;10.118;2024-02-26T15:06:52;6.10;99.90
8892;DHT22;4482;54.332;10.118;2024-02-26T15:09:19;6.10;99.90
8892;DHT22;4482;54.332;10.118;2024-02-26T15:11:46;6.20;99.90
8892;DHT22;4482;54.332;10.118;2024-02-26T15:14:14;6.10;99.90
8892;DHT22;4482;54.332;10.118;2024-02-26T15:16:41;6.10;99.90
8892;DHT22;4482;54.332;10.118;2024-02-26T15:19:08;6.00;99.90
8892;DHT22;4482;54.332;10.118;2024-02-26T15:21:34;6.00;99.90
8892;DHT22;4482;54.332;10.118;2024-02-26T15:24:08;6.00;99.90
8892;DHT22;4482;54.332;10.118;2024-02-26T15:26:36;5.90;99.90
8892;DHT22;4482;54.332;10.118;2024-02-26T15:29:03;5.90;99.90
8892;DHT22;4482;54.332;10.118;2024-02-26T15:31:31;5.90;99.90
8892;DHT22;4482;54.332;10.118;2024-02-26T15:33:58;5.80;99.90
8892;DHT22;4482;54.332;10.118;2024-02-26T15:36:24;5.80;99.90
8892;DHT22;4482;54.332;10.118;2024-02-26T15:38:51;5.90;99.90
8892;DHT22;4482;54.332;10.118;2024-02-26T15:41:18;5.90;99.90
8892;DHT22;4482;54.332;10.118;2024-02-26T15:43:45;5.90;99.90
8892;DHT22;4482;54.332;10.118;2024-02-26T15:46:12;5.90;99.90
8892;DHT22;4482;54.332;10.118;2024-02-26T15:48:40;5.90;99.90
8892;DHT22;4482;54.332;10.118;2024-02-26T15:51:07;5.80;99.90
8892;DHT22;4482;54.332;10.118;2024-02-26T15:53:33;5.80;99.90
8892;DHT22;4482;54.332;10.118;2024-02-26T15:56:00;5.80;99.90
8892;DHT22;4482;54.332;10.118;2024-02-26T15:58:27;5.70;99.90
8892;DHT22;4482;54.332;10.118;2024-02-26T16:00:53;5.70;99.90
8892;DHT22;4482;54.332;10.118;2024-02-26T16:03:20;5.70;99.90